createdAt,value
2022-08-03T00:00:29.818Z,20.81
2022-08-03T00:02:57.184Z,20.79
2022-08-03T00:05:25.913Z,20.77
2022-08-03T00:07:53.031Z,20.69
2022-08-03T00:10:20.387Z,20.60
2022-08-03T00:12:47.569Z,20.58
2022-08-03T00:15:16.686Z,20.57
2022-08-03T00:17:52.311Z,20.55
2022-08-03T00:20:21.414Z,20.51
2022-08-03T00:22:50.079Z,20.48
2022-08-03T00:25:17.292Z,20.49
2022-08-03T00:27:44.413Z,20.49
2022-08-03T00:30:12.116Z,20.47
2022-08-03T00:32:44.283Z,20.42
2022-08-03T00:35:26.623Z,20.39
2022-08-03T00:38:01.487Z,20.34
2022-08-03T00:40:29.119Z,20.30
2022-08-03T00:42:59.194Z,20.30
2022-08-03T00:45:29.048Z,20.25
2022-08-03T00:47:56.602Z,20.24
2022-08-03T00:50:25.182Z,20.24
2022-08-03T00:52:54.610Z,20.23
2022-08-03T00:55:24.424Z,20.20
2022-08-03T00:57:52.262Z,20.20
2022-08-03T01:00:21.397Z,20.17
2022-08-03T01:02:50.325Z,20.17
2022-08-03T01:05:18.012Z,20.17
2022-08-03T01:07:59.010Z,20.13
2022-08-03T01:10:36.818Z,20.13
2022-08-03T01:14:01.261Z,20.13
2022-08-03T01:16:06.268Z,20.11
2022-08-03T01:18:38.995Z,20.10
2022-08-03T01:21:11.693Z,20.09
2022-08-03T01:23:50.657Z,20.08
2022-08-03T01:26:42.630Z,20.05
2022-08-03T01:29:31.513Z,20.04
2022-08-03T01:33:00.250Z,20.01
2022-08-03T01:34:55.833Z,20.01
2022-08-03T01:37:38.726Z,19.99
2022-08-03T01:40:08.070Z,19.97
2022-08-03T01:42:37.292Z,19.94
2022-08-03T01:45:09.690Z,19.92
2022-08-03T01:47:38.301Z,19.92
2022-08-03T01:50:07.678Z,19.93
2022-08-03T01:52:37.977Z,19.90
2022-08-03T01:55:07.294Z,19.89
2022-08-03T01:58:06.087Z,19.85
2022-08-03T02:00:26.150Z,19.80
2022-08-03T02:02:55.675Z,19.78
2022-08-03T02:05:23.894Z,19.78
2022-08-03T02:07:52.161Z,19.75
2022-08-03T02:10:34.734Z,19.72
2022-08-03T02:13:06.863Z,19.72
2022-08-03T02:15:37.005Z,19.70
2022-08-03T02:18:07.922Z,19.67
2022-08-03T02:20:37.937Z,19.67
2022-08-03T02:23:06.721Z,19.63
2022-08-03T02:25:38.397Z,19.63
2022-08-03T02:28:10.730Z,19.60
2022-08-03T02:30:42.786Z,19.60
2022-08-03T02:33:14.227Z,19.59
2022-08-03T02:35:44.384Z,19.60
2022-08-03T02:38:13.960Z,19.58
2022-08-03T02:40:42.567Z,19.57
2022-08-03T02:43:16.605Z,19.55
2022-08-03T02:45:48.081Z,19.54
2022-08-03T02:48:18.533Z,19.52
2022-08-03T02:50:47.177Z,19.53
2022-08-03T02:53:16.797Z,19.50
2022-08-03T02:55:46.818Z,19.50
2022-08-03T02:58:15.342Z,19.49
2022-08-03T03:00:46.317Z,19.45
2022-08-03T03:03:14.241Z,19.41
2022-08-03T03:05:56.041Z,19.39
2022-08-03T03:08:28.131Z,19.37
2022-08-03T03:10:58.237Z,19.33
2022-08-03T03:13:27.199Z,19.31
2022-08-03T03:15:59.700Z,19.28
2022-08-03T03:18:28.382Z,19.27
2022-08-03T03:20:56.363Z,19.25
2022-08-03T03:23:25.546Z,19.25
2022-08-03T03:25:53.858Z,19.24
2022-08-03T03:28:21.216Z,19.24
2022-08-03T03:30:52.661Z,19.23
2022-08-03T03:33:22.562Z,19.23
2022-08-03T03:35:50.510Z,19.24
2022-08-03T03:38:18.221Z,19.22
2022-08-03T03:40:45.605Z,19.25
2022-08-03T03:43:13.293Z,19.27
2022-08-03T03:45:42.875Z,19.28
2022-08-03T03:48:10.134Z,19.32
2022-08-03T03:50:41.056Z,19.37
2022-08-03T03:53:10.689Z,19.43
2022-08-03T03:55:58.900Z,19.47
2022-08-03T03:58:25.448Z,19.52
2022-08-03T04:00:53.999Z,19.56
2022-08-03T04:03:21.458Z,19.59
2022-08-03T04:06:08.492Z,19.60
2022-08-03T04:08:53.954Z,19.68
2022-08-03T04:11:30.079Z,19.74
2022-08-03T04:14:03.923Z,19.78
2022-08-03T04:16:34.857Z,19.85
2022-08-03T04:19:06.097Z,19.87
2022-08-03T04:21:38.031Z,19.93
2022-08-03T04:24:08.586Z,20.00
2022-08-03T04:26:39.555Z,20.13
2022-08-03T04:29:07.565Z,20.09
2022-08-03T04:31:36.809Z,20.18
2022-08-03T04:34:04.674Z,20.34
2022-08-03T04:36:37.317Z,20.50
2022-08-03T04:39:08.314Z,20.70
2022-08-03T04:42:07.435Z,20.86
2022-08-03T04:44:28.106Z,21.04
2022-08-03T04:46:57.190Z,21.20
2022-08-03T04:49:24.695Z,21.37
2022-08-03T04:51:53.617Z,21.55
2022-08-03T04:54:20.830Z,21.69
2022-08-03T04:56:48.030Z,21.90
2022-08-03T04:59:15.134Z,22.02
2022-08-03T05:01:42.497Z,22.19
2022-08-03T05:04:09.788Z,22.39
2022-08-03T05:06:37.091Z,22.62
2022-08-03T05:09:39.570Z,22.96
2022-08-03T05:12:04.687Z,23.24
2022-08-03T05:14:32.657Z,23.48
2022-08-03T05:16:59.992Z,23.70
2022-08-03T05:19:27.155Z,23.94
2022-08-03T05:21:54.326Z,24.03
2022-08-03T05:24:22.925Z,24.09
2022-08-03T05:26:50.123Z,24.26
2022-08-03T05:29:17.281Z,24.52
2022-08-03T05:31:44.470Z,24.69
2022-08-03T05:34:11.719Z,24.92
2022-08-03T05:36:39.719Z,25.12
2022-08-03T05:39:06.893Z,25.24
2022-08-03T05:41:37.215Z,25.40
2022-08-03T05:44:05.044Z,25.67
2022-08-03T05:46:32.317Z,25.89
2022-08-03T05:48:59.620Z,26.13
2022-08-03T05:51:27.751Z,26.33
2022-08-03T05:53:54.987Z,26.43
2022-08-03T05:56:24.414Z,26.55
2022-08-03T05:58:53.708Z,26.76
2022-08-03T06:01:22.092Z,26.98
2022-08-03T06:03:50.455Z,27.22
2022-08-03T06:06:17.702Z,27.37
2022-08-03T06:08:46.412Z,27.56
2022-08-03T06:11:13.632Z,27.69
2022-08-03T06:13:41.166Z,27.80
2022-08-03T06:16:10.139Z,27.91
2022-08-03T06:18:38.677Z,28.04
2022-08-03T06:21:14.495Z,28.01
2022-08-03T06:23:53.499Z,28.10
2022-08-03T06:26:22.661Z,28.30
2022-08-03T06:28:53.099Z,28.54
2022-08-03T06:31:25.799Z,28.74
2022-08-03T06:34:31.426Z,28.91
2022-08-03T06:36:40.122Z,29.18
2022-08-03T06:39:08.307Z,29.40
2022-08-03T06:41:38.090Z,29.62
2022-08-03T06:44:12.415Z,29.73
2022-08-03T06:46:41.070Z,29.91
2022-08-03T06:49:08.372Z,30.15
2022-08-03T06:52:05.997Z,30.35
2022-08-03T06:54:24.357Z,30.53
2022-08-03T06:56:51.720Z,30.75
2022-08-03T07:00:10.939Z,30.93
2022-08-03T07:02:07.614Z,30.90
2022-08-03T07:04:34.786Z,31.03
2022-08-03T07:07:01.979Z,31.16
2022-08-03T07:09:29.325Z,31.17
2022-08-03T07:11:57.151Z,31.33
2022-08-03T07:14:24.424Z,31.48
2022-08-03T07:16:51.571Z,31.55
2022-08-03T07:19:20.110Z,31.62
2022-08-03T07:21:47.808Z,31.70
2022-08-03T07:24:15.013Z,31.73
2022-08-03T07:26:42.151Z,31.68
2022-08-03T07:29:11.743Z,31.82
2022-08-03T07:31:42.855Z,32.04
2022-08-03T07:34:10.072Z,32.22
2022-08-03T07:36:39.153Z,32.25
2022-08-03T07:39:15.974Z,32.34
2022-08-03T07:41:45.695Z,32.48
2022-08-03T07:44:12.902Z,32.43
2022-08-03T07:46:40.079Z,32.39
2022-08-03T07:49:07.379Z,32.53
2022-08-03T07:51:34.915Z,32.54
2022-08-03T07:54:03.861Z,32.75
2022-08-03T07:56:31.110Z,33.02
2022-08-03T07:58:59.790Z,33.15
2022-08-03T08:01:27.097Z,33.28
2022-08-03T08:03:54.687Z,33.52
2022-08-03T08:06:22.142Z,33.76
2022-08-03T08:08:49.298Z,33.87
2022-08-03T08:11:17.814Z,33.96
2022-08-03T08:13:44.989Z,34.11
2022-08-03T08:16:12.131Z,34.13
2022-08-03T08:18:39.261Z,34.17
2022-08-03T08:21:06.962Z,34.14
2022-08-03T08:23:43.670Z,34.36
2022-08-03T08:26:13.614Z,34.53
2022-08-03T08:28:42.293Z,34.58
2022-08-03T08:31:09.406Z,34.80
2022-08-03T08:34:01.397Z,35.03
2022-08-03T08:36:24.327Z,34.95
2022-08-03T08:38:51.650Z,35.02
2022-08-03T08:41:19.486Z,35.02
2022-08-03T08:43:48.078Z,34.99
2022-08-03T08:46:22.832Z,34.98
2022-08-03T08:48:52.512Z,35.09
2022-08-03T08:51:21.861Z,35.26
2022-08-03T08:53:52.777Z,35.46
2022-08-03T08:56:22.894Z,35.57
2022-08-03T08:58:53.086Z,35.50
2022-08-03T09:01:20.976Z,35.56
2022-08-03T09:03:48.753Z,35.83
2022-08-03T09:06:16.080Z,36.11
2022-08-03T09:08:43.352Z,36.22
2022-08-03T09:11:11.964Z,36.25
2022-08-03T09:13:39.973Z,36.41
2022-08-03T09:16:13.772Z,36.45
2022-08-03T09:18:42.707Z,36.64
2022-08-03T09:21:31.216Z,36.71
2022-08-03T09:24:03.830Z,36.75
2022-08-03T09:26:34.318Z,36.83
2022-08-03T09:29:07.168Z,36.99
2022-08-03T09:31:44.391Z,36.69
2022-08-03T09:34:14.408Z,36.23
2022-08-03T09:36:43.923Z,35.91
2022-08-03T09:39:12.797Z,35.41
2022-08-03T09:41:41.317Z,34.98
2022-08-03T09:44:08.959Z,34.98
2022-08-03T09:46:55.432Z,34.77
2022-08-03T09:49:23.362Z,34.79
2022-08-03T09:52:32.900Z,35.30
2022-08-03T09:54:38.901Z,35.64
2022-08-03T09:57:06.045Z,35.88
2022-08-03T09:59:34.430Z,35.56
2022-08-03T10:02:03.055Z,35.23
2022-08-03T10:04:30.333Z,35.49
2022-08-03T10:07:06.546Z,35.88
2022-08-03T10:09:33.804Z,36.33
2022-08-03T10:12:08.675Z,36.53
2022-08-03T10:14:37.858Z,36.30
2022-08-03T10:17:06.542Z,36.46
2022-08-03T10:19:33.854Z,36.51
2022-08-03T10:22:04.223Z,36.58
2022-08-03T10:24:36.201Z,36.92
2022-08-03T10:27:07.209Z,37.17
2022-08-03T10:29:38.482Z,37.36
2022-08-03T10:32:14.635Z,37.62
2022-08-03T10:34:44.827Z,37.73
2022-08-03T10:37:14.854Z,37.72
2022-08-03T10:39:53.540Z,37.90
2022-08-03T10:42:27.269Z,38.08
2022-08-03T10:45:03.590Z,37.84
2022-08-03T10:47:33.234Z,37.03
2022-08-03T10:50:01.236Z,36.52
2022-08-03T10:52:32.910Z,36.45
2022-08-03T10:55:42.207Z,36.79
2022-08-03T10:58:11.516Z,37.20
2022-08-03T11:00:50.947Z,37.38
2022-08-03T11:03:19.574Z,37.68
2022-08-03T11:05:54.465Z,38.06
2022-08-03T11:08:31.245Z,38.38
2022-08-03T11:11:01.444Z,38.13
2022-08-03T11:13:32.008Z,37.96
2022-08-03T11:16:04.776Z,37.80
2022-08-03T11:18:35.461Z,37.55
2022-08-03T11:21:03.200Z,37.64
2022-08-03T11:24:05.126Z,37.80
2022-08-03T11:26:33.423Z,37.91
2022-08-03T11:29:28.156Z,38.01
2022-08-03T11:31:55.459Z,37.14
2022-08-03T11:34:24.766Z,36.87
2022-08-03T11:37:21.390Z,37.07
2022-08-03T11:39:54.778Z,37.23
2022-08-03T11:42:45.285Z,37.25
2022-08-03T11:45:12.739Z,37.43
2022-08-03T11:47:51.092Z,37.73
2022-08-03T11:50:21.670Z,37.78
2022-08-03T11:52:49.668Z,37.68
2022-08-03T11:55:20.444Z,37.15
2022-08-03T11:59:17.704Z,36.66
2022-08-03T12:00:35.592Z,36.25
2022-08-03T12:03:06.067Z,35.96
2022-08-03T12:05:51.814Z,35.79
2022-08-03T12:08:33.210Z,35.81
2022-08-03T12:11:02.038Z,35.98
2022-08-03T12:14:08.823Z,36.07
2022-08-03T12:16:26.470Z,35.76
2022-08-03T12:18:58.807Z,35.74
2022-08-03T12:21:27.789Z,36.15
2022-08-03T12:23:57.416Z,36.26
2022-08-03T12:26:24.650Z,36.05
2022-08-03T12:28:51.886Z,36.28
2022-08-03T12:31:19.467Z,36.70
2022-08-03T12:33:58.960Z,37.09
2022-08-03T12:36:28.525Z,37.37
2022-08-03T12:38:57.879Z,37.40
2022-08-03T12:41:30.829Z,37.50
2022-08-03T12:43:58.472Z,37.23
2022-08-03T12:46:31.010Z,37.19
2022-08-03T12:49:06.868Z,37.07
2022-08-03T12:51:36.925Z,36.82
2022-08-03T12:54:05.150Z,36.57
2022-08-03T12:56:32.397Z,36.36
2022-08-03T12:58:59.635Z,36.05
2022-08-03T13:01:28.010Z,35.66
2022-08-03T13:03:55.841Z,35.54
2022-08-03T13:06:25.201Z,35.92
2022-08-03T13:09:04.811Z,36.31
2022-08-03T13:11:58.240Z,36.59
2022-08-03T13:14:20.651Z,36.83
2022-08-03T13:16:48.499Z,36.88
2022-08-03T13:19:16.177Z,36.71
2022-08-03T13:22:03.417Z,36.76
2022-08-03T13:24:33.050Z,36.90
2022-08-03T13:27:00.682Z,36.98
2022-08-03T13:29:47.891Z,37.05
2022-08-03T13:32:15.047Z,37.24
2022-08-03T13:34:42.477Z,37.27
2022-08-03T13:37:10.343Z,37.38
2022-08-03T13:39:57.577Z,37.57
2022-08-03T13:42:27.849Z,37.62
2022-08-03T13:44:55.131Z,37.42
2022-08-03T13:47:22.782Z,37.32
2022-08-03T13:50:00.207Z,37.05
2022-08-03T13:52:31.924Z,36.68
2022-08-03T13:55:00.807Z,36.24
2022-08-03T13:58:03.131Z,36.09
2022-08-03T14:00:27.776Z,36.22
2022-08-03T14:03:12.214Z,36.25
2022-08-03T14:05:41.011Z,36.06
2022-08-03T14:08:08.661Z,36.16
2022-08-03T14:10:38.299Z,36.26
2022-08-03T14:13:06.214Z,36.27
2022-08-03T14:15:38.148Z,36.26
2022-08-03T14:18:07.294Z,36.29
2022-08-03T14:20:48.643Z,36.26
2022-08-03T14:23:17.720Z,36.32
2022-08-03T14:25:51.493Z,36.39
2022-08-03T14:28:21.296Z,36.38
2022-08-03T14:30:48.943Z,36.22
2022-08-03T14:33:16.200Z,36.10
2022-08-03T14:35:43.517Z,36.10
2022-08-03T14:38:10.710Z,36.06
2022-08-03T14:40:37.950Z,35.99
2022-08-03T14:43:06.489Z,36.00
2022-08-03T14:45:34.358Z,35.96
2022-08-03T14:50:30.778Z,35.83
2022-08-03T14:50:51.675Z,35.78
2022-08-03T14:53:19.782Z,35.68
2022-08-03T14:55:51.244Z,35.48
2022-08-03T14:58:21.520Z,35.39
2022-08-03T15:00:51.131Z,35.42
2022-08-03T15:03:21.519Z,35.40
2022-08-03T15:05:48.913Z,35.36
2022-08-03T15:08:16.458Z,35.26
2022-08-03T15:10:44.233Z,35.20
2022-08-03T15:13:12.381Z,35.05
2022-08-03T15:15:41.293Z,34.94
2022-08-03T15:18:08.549Z,34.87
2022-08-03T15:20:44.327Z,34.81
2022-08-03T15:23:12.023Z,34.77
2022-08-03T15:26:06.569Z,34.67
2022-08-03T15:28:26.438Z,34.51
2022-08-03T15:30:54.998Z,34.20
2022-08-03T15:33:22.305Z,33.85
2022-08-03T15:35:49.950Z,33.64
2022-08-03T15:38:17.651Z,33.63
2022-08-03T15:40:45.061Z,33.73
2022-08-03T15:43:12.320Z,33.82
2022-08-03T15:45:41.951Z,33.89
2022-08-03T15:48:10.711Z,33.92
2022-08-03T15:50:37.990Z,33.83
2022-08-03T15:53:05.442Z,33.73
2022-08-03T15:55:32.864Z,33.65
2022-08-03T15:59:10.239Z,33.55
2022-08-03T16:00:47.234Z,33.40
2022-08-03T16:03:15.738Z,33.29
2022-08-03T16:05:42.884Z,33.22
2022-08-03T16:08:13.699Z,33.13
2022-08-03T16:10:41.291Z,33.05
2022-08-03T16:13:08.541Z,32.93
2022-08-03T16:15:38.687Z,32.84
2022-08-03T16:18:06.451Z,32.78
2022-08-03T16:20:35.488Z,32.72
2022-08-03T16:23:11.249Z,32.63
2022-08-03T16:25:39.254Z,32.56
2022-08-03T16:28:07.759Z,32.45
2022-08-03T16:30:40.623Z,32.34
2022-08-03T16:33:07.962Z,32.24
2022-08-03T16:35:36.664Z,32.12
2022-08-03T16:38:09.279Z,32.03
2022-08-03T16:40:37.483Z,31.96
2022-08-03T16:43:18.842Z,31.88
2022-08-03T16:45:46.866Z,31.80
2022-08-03T16:48:14.571Z,31.73
2022-08-03T16:50:44.364Z,31.66
2022-08-03T16:53:15.720Z,31.59
2022-08-03T16:55:52.080Z,31.48
2022-08-03T16:58:34.481Z,31.42
2022-08-03T17:01:20.751Z,31.33
2022-08-03T17:04:02.162Z,31.27
2022-08-03T17:06:36.268Z,31.17
2022-08-03T17:09:09.119Z,31.10
2022-08-03T17:11:46.814Z,31.01
2022-08-03T17:14:15.590Z,30.94
2022-08-03T17:16:51.888Z,30.84
2022-08-03T17:19:23.161Z,30.73
2022-08-03T17:21:58.060Z,30.59
2022-08-03T17:24:31.206Z,30.46
2022-08-03T17:27:01.972Z,30.30
2022-08-03T17:29:30.077Z,30.16
2022-08-03T17:31:57.424Z,30.00
2022-08-03T17:34:26.454Z,29.86
2022-08-03T17:37:04.483Z,29.71
2022-08-03T17:39:57.195Z,29.59
2022-08-03T17:42:29.643Z,29.43
2022-08-03T17:45:02.073Z,29.30
2022-08-03T17:47:41.885Z,29.17
2022-08-03T17:50:25.050Z,29.03
2022-08-03T17:53:07.624Z,28.89
2022-08-03T17:55:55.496Z,28.77
2022-08-03T17:58:37.824Z,28.63
2022-08-03T18:01:59.789Z,28.55
2022-08-03T18:04:29.871Z,28.40
2022-08-03T18:06:59.990Z,28.33
2022-08-03T18:10:06.783Z,28.21
2022-08-03T18:12:26.602Z,28.13
2022-08-03T18:15:01.111Z,28.06
2022-08-03T18:18:01.722Z,27.97
2022-08-03T18:20:34.246Z,27.86
2022-08-03T18:23:06.345Z,27.77
2022-08-03T18:25:45.278Z,27.67
2022-08-03T18:28:18.682Z,27.57
2022-08-03T18:34:18.463Z,27.42
2022-08-03T18:36:30.288Z,27.32
2022-08-03T18:39:00.048Z,27.24
2022-08-03T18:41:32.962Z,27.19
2022-08-03T18:44:08.915Z,27.09
2022-08-03T18:47:07.363Z,27.02
2022-08-03T18:49:53.102Z,26.95
2022-08-03T18:52:29.405Z,26.90
2022-08-03T18:55:19.894Z,26.81
2022-08-03T18:57:55.726Z,26.70
2022-08-03T19:00:34.212Z,26.65
2022-08-03T19:03:20.695Z,26.56
2022-08-03T19:06:02.631Z,26.46
2022-08-03T19:08:45.299Z,26.34
2022-08-03T19:11:20.438Z,26.27
2022-08-03T19:13:59.294Z,26.19
2022-08-03T19:16:34.630Z,26.09
2022-08-03T19:19:02.190Z,25.99
2022-08-03T19:21:30.156Z,25.83
2022-08-03T19:24:00.289Z,25.70
2022-08-03T19:26:31.070Z,25.61
2022-08-03T19:29:00.206Z,25.49
2022-08-03T19:31:30.731Z,25.41
2022-08-03T19:34:00.402Z,25.38
2022-08-03T19:36:29.609Z,25.34
2022-08-03T19:38:58.331Z,25.27
2022-08-03T19:41:31.248Z,25.24
2022-08-03T19:44:20.246Z,25.26
2022-08-03T19:46:53.124Z,25.21
2022-08-03T19:49:23.675Z,25.06
2022-08-03T19:52:11.149Z,24.89
2022-08-03T19:54:53.305Z,24.86
2022-08-03T19:57:25.334Z,24.78
2022-08-03T19:59:55.469Z,24.52
2022-08-03T20:02:26.151Z,24.52
2022-08-03T20:04:56.547Z,24.53
2022-08-03T20:07:24.611Z,24.52
2022-08-03T20:09:54.391Z,24.53
2022-08-03T20:12:27.418Z,24.46
2022-08-03T20:14:58.133Z,24.17
2022-08-03T20:17:54.435Z,24.14
2022-08-03T20:20:13.924Z,24.16
2022-08-03T20:22:45.606Z,24.10
2022-08-03T20:25:16.300Z,24.08
2022-08-03T20:28:06.739Z,24.07
2022-08-03T20:30:37.160Z,23.98
2022-08-03T20:33:04.391Z,23.87
2022-08-03T20:35:33.438Z,23.63
2022-08-03T20:38:00.690Z,23.59
2022-08-03T20:40:27.881Z,23.57
2022-08-03T20:42:56.281Z,23.56
2022-08-03T20:46:00.915Z,23.53
2022-08-03T20:48:12.057Z,23.36
2022-08-03T20:50:43.688Z,23.24
2022-08-03T20:53:12.124Z,23.15
2022-08-03T20:55:47.654Z,23.10
2022-08-03T20:58:27.793Z,22.89
2022-08-03T21:00:56.982Z,22.84
2022-08-03T21:03:25.507Z,22.73
2022-08-03T21:06:12.108Z,22.71
2022-08-03T21:08:46.895Z,22.69
2022-08-03T21:11:17.887Z,22.66
2022-08-03T21:13:04.990Z,27.50
2022-08-03T21:13:58.915Z,22.59
2022-08-03T21:16:28.727Z,22.52
2022-08-03T21:18:59.751Z,22.50
2022-08-03T21:21:31.588Z,22.39
2022-08-03T21:24:00.306Z,22.37
2022-08-03T21:26:28.830Z,22.40
2022-08-03T21:28:56.916Z,22.40
2022-08-03T21:31:26.530Z,22.37
2022-08-03T21:33:55.962Z,22.33
2022-08-03T21:36:26.148Z,22.27
2022-08-03T21:38:56.674Z,22.26
2022-08-03T21:41:25.384Z,22.20
2022-08-03T21:43:52.720Z,22.21
2022-08-03T21:46:20.541Z,22.19
2022-08-03T21:48:51.438Z,22.16
2022-08-03T21:51:22.393Z,22.15
2022-08-03T21:54:02.578Z,22.09
2022-08-03T21:56:36.958Z,22.06
2022-08-03T21:59:06.626Z,22.04
2022-08-03T22:01:35.813Z,21.99
2022-08-03T22:04:06.942Z,21.98
2022-08-03T22:06:35.401Z,21.97
2022-08-03T22:09:06.244Z,21.93
2022-08-03T22:11:34.603Z,21.88
2022-08-03T22:14:02.622Z,21.85
2022-08-03T22:16:30.118Z,21.80
2022-08-03T22:18:57.358Z,21.76
2022-08-03T22:21:36.146Z,21.72
2022-08-03T22:24:06.481Z,21.71
2022-08-03T22:26:36.126Z,21.69
2022-08-03T22:29:07.302Z,21.65
2022-08-03T22:31:57.402Z,21.59
2022-08-03T22:34:26.573Z,21.53
2022-08-03T22:37:00.435Z,21.45
2022-08-03T22:39:29.786Z,21.37
2022-08-03T22:41:57.915Z,21.30
2022-08-03T22:44:25.666Z,21.24
2022-08-03T22:46:53.366Z,21.16
2022-08-03T22:49:21.762Z,21.09
2022-08-03T22:51:51.875Z,21.06
2022-08-03T22:54:19.381Z,21.06
2022-08-03T22:56:49.195Z,21.02
2022-08-03T22:59:40.633Z,20.98
2022-08-03T23:02:19.967Z,20.94
2022-08-03T23:04:51.182Z,20.89
2022-08-03T23:07:21.551Z,20.86
2022-08-03T23:09:49.513Z,20.79
2022-08-03T23:12:20.291Z,20.73
2022-08-03T23:14:53.355Z,20.67
2022-08-03T23:17:22.098Z,20.57
2022-08-03T23:19:50.690Z,20.51
2022-08-03T23:22:30.129Z,20.46
2022-08-03T23:24:59.352Z,20.43
2022-08-03T23:27:30.134Z,20.40
2022-08-03T23:29:59.112Z,20.37
2022-08-03T23:32:27.601Z,20.35
2022-08-03T23:35:15.943Z,20.35
2022-08-03T23:38:21.692Z,20.33
2022-08-03T23:40:33.593Z,20.30
2022-08-03T23:43:02.752Z,20.27
2022-08-03T23:45:34.429Z,20.23
2022-08-03T23:48:01.630Z,20.21
2022-08-03T23:50:40.299Z,20.21
2022-08-03T23:53:15.002Z,20.20
2022-08-03T23:55:51.510Z,20.19
2022-08-03T23:58:31.411Z,20.13
